createdAt,value
2023-05-02T00:00:17.003Z,55.1
2023-05-02T00:05:16.833Z,55.0
2023-05-02T00:10:17.184Z,55.0
2023-05-02T00:15:16.777Z,55.0
2023-05-02T00:20:16.866Z,54.9
2023-05-02T00:25:16.721Z,54.8
2023-05-02T00:30:16.945Z,54.7
2023-05-02T00:35:17.063Z,54.5
2023-05-02T00:40:16.801Z,54.4
2023-05-02T00:45:16.856Z,54.2
2023-05-02T00:50:16.795Z,54.2
2023-05-02T00:55:16.807Z,54.1
2023-05-02T01:00:16.966Z,54.1
2023-05-02T01:05:16.976Z,54.1
2023-05-02T01:10:16.888Z,54.0
2023-05-02T01:15:16.845Z,54.0
2023-05-02T01:20:16.936Z,53.9
2023-05-02T01:25:16.919Z,53.8
2023-05-02T01:30:16.890Z,53.7
2023-05-02T01:35:17.006Z,53.6
2023-05-02T01:40:16.958Z,53.6
2023-05-02T01:45:16.956Z,53.5
2023-05-02T01:50:17.050Z,53.4
2023-05-02T01:55:16.939Z,53.3
2023-05-02T02:00:17.064Z,53.2
2023-05-02T02:05:17.021Z,53.0
2023-05-02T02:10:16.992Z,52.9
2023-05-02T02:15:17.014Z,52.8
2023-05-02T02:20:17.128Z,52.8
2023-05-02T02:25:17.183Z,52.7
2023-05-02T02:30:17.033Z,52.6
2023-05-02T02:35:17.065Z,52.4
2023-05-02T02:40:17.205Z,52.3
2023-05-02T02:45:17.137Z,52.1
2023-05-02T02:50:17.192Z,51.9
2023-05-02T02:55:17.058Z,51.7
2023-05-02T03:00:17.151Z,51.5
2023-05-02T03:05:17.290Z,51.4
2023-05-02T03:10:17.120Z,51.2
2023-05-02T03:15:17.135Z,51.1
2023-05-02T03:20:17.279Z,50.9
2023-05-02T03:25:17.250Z,50.8
2023-05-02T03:30:17.140Z,50.7
2023-05-02T03:35:17.125Z,50.6
2023-05-02T03:40:17.160Z,50.5
2023-05-02T03:45:17.296Z,50.4
2023-05-02T03:50:17.161Z,50.3
2023-05-02T03:55:17.306Z,50.2
2023-05-02T04:00:16.291Z,50.1
2023-05-02T04:05:16.336Z,49.9
2023-05-02T04:10:16.444Z,49.9
2023-05-02T04:15:16.229Z,49.8
2023-05-02T04:20:16.183Z,49.7
2023-05-02T04:25:16.225Z,49.6
2023-05-02T04:30:16.261Z,49.5
2023-05-02T04:35:16.525Z,49.5
2023-05-02T04:40:16.265Z,49.4
2023-05-02T04:45:16.424Z,49.4
2023-05-02T04:50:16.439Z,49.4
2023-05-02T04:55:16.456Z,49.3
2023-05-02T05:00:16.281Z,49.4
2023-05-02T05:05:16.519Z,49.5
2023-05-02T05:10:16.332Z,49.5
2023-05-02T05:15:16.357Z,49.4
2023-05-02T05:20:16.355Z,49.4
2023-05-02T05:25:16.507Z,49.4
2023-05-02T05:30:16.482Z,49.3
2023-05-02T05:35:16.478Z,49.3
2023-05-02T05:40:16.752Z,49.3
2023-05-02T05:45:16.545Z,49.3
2023-05-02T05:50:16.435Z,49.3
2023-05-02T05:55:16.546Z,49.3
2023-05-02T06:00:16.383Z,49.3
2023-05-02T06:05:16.458Z,49.3
2023-05-02T06:10:16.476Z,49.2
2023-05-02T06:15:16.679Z,49.2
2023-05-02T06:20:18.135Z,49.1
2023-05-02T06:25:16.559Z,49.0
2023-05-02T06:30:16.487Z,49.0
2023-05-02T06:35:16.545Z,48.9
2023-05-02T06:40:16.635Z,48.8
2023-05-02T06:45:16.587Z,48.7
2023-05-02T06:50:16.602Z,48.7
2023-05-02T06:55:16.529Z,48.7
2023-05-02T07:00:16.653Z,48.6
2023-05-02T07:05:16.618Z,48.6
2023-05-02T07:10:16.561Z,48.5
2023-05-02T07:15:16.563Z,48.5
2023-05-02T07:20:16.659Z,48.4
2023-05-02T07:25:16.648Z,48.3
2023-05-02T07:30:16.639Z,48.3
2023-05-02T07:35:16.873Z,48.2
2023-05-02T07:40:16.702Z,48.2
2023-05-02T07:45:16.746Z,48.2
2023-05-02T07:50:16.706Z,48.2
2023-05-02T07:55:16.987Z,48.1
2023-05-02T08:00:16.899Z,48.2
2023-05-02T08:05:16.793Z,48.3
2023-05-02T08:10:16.901Z,48.3
2023-05-02T08:15:16.869Z,48.3
2023-05-02T08:20:16.849Z,48.3
2023-05-02T08:25:16.797Z,48.3
2023-05-02T08:30:16.745Z,48.3
2023-05-02T08:35:16.867Z,48.2
2023-05-02T08:40:21.965Z,48.2
2023-05-02T08:45:16.992Z,48.2
2023-05-02T08:50:16.929Z,48.2
2023-05-02T08:55:16.951Z,48.2
2023-05-02T09:00:17.102Z,48.1
2023-05-02T09:05:16.825Z,48.2
2023-05-02T09:10:16.824Z,48.2
2023-05-02T09:15:19.184Z,48.1
2023-05-02T09:20:16.851Z,48.0
2023-05-02T09:25:17.045Z,48.1
2023-05-02T09:30:16.845Z,48.2
2023-05-02T09:35:16.922Z,48.3
2023-05-02T09:40:16.920Z,48.3
2023-05-02T09:45:16.878Z,48.4
2023-05-02T09:50:16.905Z,48.5
2023-05-02T09:55:17.008Z,48.5
2023-05-02T10:00:16.897Z,48.5
2023-05-02T10:05:16.896Z,48.6
2023-05-02T10:10:17.055Z,48.8
2023-05-02T10:15:17.137Z,48.9
2023-05-02T10:20:16.993Z,49.1
2023-05-02T10:25:17.044Z,49.2
2023-05-02T10:30:17.018Z,49.5
2023-05-02T10:35:17.015Z,49.7
2023-05-02T10:40:17.044Z,49.9
2023-05-02T10:45:16.947Z,50.1
2023-05-02T10:50:17.191Z,50.3
2023-05-02T10:55:17.090Z,50.6
2023-05-02T11:00:17.154Z,50.9
2023-05-02T11:05:17.175Z,51.3
2023-05-02T11:10:17.237Z,51.4
2023-05-02T11:15:17.142Z,51.3
2023-05-02T11:20:17.084Z,51.2
2023-05-02T11:25:17.170Z,51.1
2023-05-02T11:30:17.140Z,51.1
2023-05-02T11:35:17.143Z,51.1
2023-05-02T11:40:17.127Z,51.2
2023-05-02T11:45:17.293Z,51.4
2023-05-02T11:50:17.124Z,51.7
2023-05-02T11:55:17.322Z,51.9
2023-05-02T12:00:17.173Z,52.1
2023-05-02T12:05:17.231Z,52.1
2023-05-02T12:10:17.192Z,52.3
2023-05-02T12:15:17.211Z,52.4
2023-05-02T12:20:17.248Z,52.4
2023-05-02T12:25:17.321Z,52.2
2023-05-02T12:30:17.185Z,51.9
2023-05-02T12:35:17.514Z,51.7
2023-05-02T12:40:17.304Z,51.5
2023-05-02T12:45:17.218Z,51.2
2023-05-02T12:50:17.350Z,50.9
2023-05-02T12:55:17.397Z,50.6
2023-05-02T13:00:17.253Z,50.3
2023-05-02T13:05:17.251Z,50.1
2023-05-02T13:10:17.357Z,50.2
2023-05-02T13:15:17.352Z,50.4
2023-05-02T13:20:17.352Z,50.8
2023-05-02T13:25:17.298Z,51.3
2023-05-02T13:30:17.395Z,51.7
2023-05-02T13:35:17.409Z,52.1
2023-05-02T13:40:17.440Z,52.4
2023-05-02T13:45:17.433Z,52.8
2023-05-02T13:50:15.631Z,53.4
2023-05-02T13:55:15.441Z,54.0
2023-05-02T14:00:15.433Z,54.6
2023-05-02T14:05:15.556Z,55.1
2023-05-02T14:10:15.453Z,55.5
2023-05-02T14:15:15.361Z,55.6
2023-05-02T14:20:15.421Z,55.4
2023-05-02T14:25:15.449Z,55.4
2023-05-02T14:30:15.646Z,55.8
2023-05-02T14:35:15.678Z,56.0
2023-05-02T14:40:15.511Z,56.4
2023-05-02T14:45:15.560Z,56.9
2023-05-02T14:50:15.485Z,57.0
2023-05-02T14:55:15.563Z,56.9
2023-05-02T15:00:15.691Z,56.9
2023-05-02T15:05:15.611Z,56.9
2023-05-02T15:10:15.528Z,56.8
2023-05-02T15:15:15.602Z,56.9
2023-05-02T15:20:15.604Z,56.8
2023-05-02T15:25:15.532Z,56.8
2023-05-02T15:30:17.740Z,56.6
2023-05-02T15:35:15.569Z,56.7
2023-05-02T15:40:15.747Z,56.8
2023-05-02T15:45:15.617Z,57.0
2023-05-02T15:50:15.625Z,57.2
2023-05-02T15:55:15.662Z,57.2
2023-05-02T16:00:15.691Z,56.9
2023-05-02T16:05:15.678Z,56.3
2023-05-02T16:10:15.622Z,56.0
2023-05-02T16:15:15.681Z,55.8
2023-05-02T16:20:15.930Z,55.4
2023-05-02T16:25:15.720Z,55.1
2023-05-02T16:30:15.840Z,54.8
2023-05-02T16:35:16.004Z,55.0
2023-05-02T16:40:16.003Z,55.1
2023-05-02T16:45:15.869Z,55.0
2023-05-02T16:50:15.809Z,55.1
2023-05-02T16:55:15.826Z,55.1
2023-05-02T17:00:15.983Z,55.0
2023-05-02T17:05:15.760Z,54.8
2023-05-02T17:10:15.820Z,54.8
2023-05-02T17:15:15.796Z,55.0
2023-05-02T17:20:15.801Z,55.3
2023-05-02T17:25:15.937Z,55.5
2023-05-02T17:30:15.914Z,55.6
2023-05-02T17:35:15.927Z,55.5
2023-05-02T17:40:15.862Z,54.6
2023-05-02T17:45:16.119Z,53.4
2023-05-02T17:50:15.948Z,52.7
2023-05-02T17:55:18.365Z,51.9
2023-05-02T18:00:15.937Z,51.5
2023-05-02T18:05:15.975Z,51.2
2023-05-02T18:10:16.027Z,51.1
2023-05-02T18:15:15.988Z,50.9
2023-05-02T18:20:15.970Z,50.7
2023-05-02T18:25:16.023Z,50.6
2023-05-02T18:30:15.996Z,50.5
2023-05-02T18:35:16.115Z,50.5
2023-05-02T18:40:16.048Z,50.4
2023-05-02T18:45:16.005Z,50.3
2023-05-02T18:50:16.313Z,50.2
2023-05-02T18:55:16.055Z,50.3
2023-05-02T19:00:15.987Z,50.3
2023-05-02T19:05:16.034Z,50.3
2023-05-02T19:10:16.149Z,50.3
2023-05-02T19:15:16.197Z,50.1
2023-05-02T19:20:16.068Z,49.7
2023-05-02T19:25:16.102Z,49.5
2023-05-02T19:30:16.137Z,49.2
2023-05-02T19:35:16.081Z,49.2
2023-05-02T19:40:16.220Z,49.5
2023-05-02T19:45:16.136Z,49.8
2023-05-02T19:50:16.147Z,50.2
2023-05-02T19:55:16.279Z,50.3
2023-05-02T20:00:16.207Z,50.5
2023-05-02T20:05:16.125Z,50.6
2023-05-02T20:10:16.186Z,50.7
2023-05-02T20:15:16.357Z,50.9
2023-05-02T20:20:16.168Z,51.1
2023-05-02T20:25:16.309Z,51.3
2023-05-02T20:30:16.250Z,51.5
2023-05-02T20:35:16.324Z,51.6
2023-05-02T20:40:16.197Z,51.7
2023-05-02T20:45:16.273Z,51.8
2023-05-02T20:50:16.242Z,51.6
2023-05-02T20:55:16.235Z,51.5
2023-05-02T21:00:16.242Z,51.4
2023-05-02T21:05:16.309Z,51.4
2023-05-02T21:10:16.271Z,51.4
2023-05-02T21:15:16.251Z,51.3
2023-05-02T21:20:16.612Z,51.4
2023-05-02T21:25:16.331Z,51.5
2023-05-02T21:30:16.342Z,51.6
2023-05-02T21:35:16.324Z,51.5
2023-05-02T21:40:16.345Z,51.6
2023-05-02T21:45:16.367Z,51.5
2023-05-02T21:50:16.342Z,51.2
2023-05-02T21:55:16.365Z,51.0
2023-05-02T22:00:16.354Z,50.8
2023-05-02T22:05:16.420Z,50.5
2023-05-02T22:10:16.506Z,50.4
2023-05-02T22:15:16.424Z,50.3
2023-05-02T22:20:16.535Z,50.1
2023-05-02T22:25:16.382Z,49.8
2023-05-02T22:30:16.446Z,49.6
2023-05-02T22:35:16.645Z,49.5
2023-05-02T22:40:16.517Z,49.4
2023-05-02T22:45:16.541Z,49.2
2023-05-02T22:50:16.472Z,49.1
2023-05-02T22:55:16.655Z,49.1
2023-05-02T23:00:16.454Z,49.1
2023-05-02T23:05:16.524Z,49.0
2023-05-02T23:10:16.522Z,48.9
2023-05-02T23:15:16.524Z,48.9
2023-05-02T23:20:16.514Z,48.9
2023-05-02T23:25:16.562Z,48.8
2023-05-02T23:30:16.583Z,48.8
2023-05-02T23:35:16.627Z,48.8
2023-05-02T23:40:16.536Z,48.8
2023-05-02T23:45:16.560Z,48.9
2023-05-02T23:50:16.667Z,49.0
2023-05-02T23:55:16.633Z,49.1
